Georgia — WDG9270 — position and weather

sailwx.info

Track history (hours):
 
Tides and Currents Weather Stations Pressure Air Temp Water Temp Dewpoint Dewpoint Depression Visibility Wind Speed Wind Dir Waves Ship Positions

Georgia

Owner: savannah bar pilots, inc., savannah, GA. More information available from US FCC via Universal Licensing System and Coast Guard Vessel Documentation Center.

Last reported at 2018-Jan-20 13:01 UTC. Time now 2018-Jan-20 13:05 UTC.
Position N 31°58' W 080°43'.

Length 19 m; draft 1 m.

Type: Pilot. MMSI: 367586130.

Date/timePositionNaut miles runAvg speedWind from/ knotsBaromVisibWave heightAir tempDewpointWater temp
2018-Jan-20 13:01N 31°58' W 080°43'612.7
2018-Jan-20 12:31N 32°02' W 080°49'4 8.1
2018-Jan-20 12:00N 32°02' W 080°54'0 0.0
2018-Jan-20 11:31N 32°02' W 080°54'1325.0
2018-Jan-20 10:59N 31°56' W 080°40'511.3
2018-Jan-20 10:30N 31°59' W 080°45'816.0
2018-Jan-20 10:00N 32°02' W 080°54'816.4
2018-Jan-20 09:31N 31°59' W 080°45'0 0.2
2018-Jan-20 09:00N 31°59' W 080°45'2 4.2
2018-Jan-20 08:31N 32°00' W 080°47'814.3
2018-Jan-20 07:59N 31°56' W 080°40'1 1.5
2018-Jan-20 07:30N 31°57' W 080°40'3 6.6
2018-Jan-20 07:00N 31°58' W 080°43'3 6.9
2018-Jan-20 06:30N 31°60' W 080°47'713.0
2018-Jan-20 06:00N 32°02' W 080°54'0 0.0
2018-Jan-20 05:26N 32°02' W 080°54'0 0.0
2018-Jan-20 05:00N 32°02' W 080°54'0 0.0
2018-Jan-20 04:30N 32°02' W 080°54'0 0.0
2018-Jan-20 04:00N 32°02' W 080°54'0 0.0
2018-Jan-20 03:30N 32°02' W 080°54'0 0.0
2018-Jan-20 03:00N 32°02' W 080°54'816.1
2018-Jan-20 02:31N 31°59' W 080°45'611.6
2018-Jan-20 02:01N 32°02' W 080°51'3 5.0
2018-Jan-20 01:30N 32°02' W 080°54'0 0.0
2018-Jan-20 01:00N 32°02' W 080°54'1427.7
2018-Jan-20 00:30N 31°57' W 080°39'1427.6
2018-Jan-20 00:00N 32°02' W 080°54'0 0.0
2018-Jan-19 23:30N 32°02' W 080°54'0 0.0
2018-Jan-19 22:59N 32°02' W 080°54'0 0.0
2018-Jan-19 22:30N 32°02' W 080°54'0 0.0
2018-Jan-19 21:59N 32°02' W 080°54'0 0.0
2018-Jan-19 21:30N 32°02' W 080°54'0 0.0
2018-Jan-19 21:00N 32°02' W 080°54'0 0.0
2018-Jan-19 20:30N 32°02' W 080°54'0 0.0
2018-Jan-19 20:00N 32°02' W 080°54'0 0.0
2018-Jan-19 19:30N 32°02' W 080°54'0 0.0
2018-Jan-19 19:00N 32°02' W 080°54'1020.1
2018-Jan-19 18:30N 31°58' W 080°43'815.3
2018-Jan-19 18:00N 32°02' W 080°51'3 5.7
2018-Jan-19 17:30N 32°02' W 080°54'0 0.0
2018-Jan-19 17:00N 32°02' W 080°54'0 0.0
2018-Jan-19 16:29N 32°02' W 080°54'715.1
2018-Jan-19 16:00N 31°59' W 080°46'4 7.5
2018-Jan-19 15:30N 32°02' W 080°49'4 8.2
2018-Jan-19 15:00N 32°02' W 080°54'0 0.0
2018-Jan-19 14:30N 32°02' W 080°54'0 0.0
2018-Jan-19 13:59N 32°02' W 080°54'1 1.2
2018-Jan-19 13:30N 32°02' W 080°54'5 0.6
2018-Jan-19 05:59N 32°01' W 080°48'510.7
2018-Jan-19 05:30N 32°02' W 080°54'816.5
2018-Jan-19 05:00N 31°59' W 080°45'4 7.4
2018-Jan-19 04:30N 32°01' W 080°49'5 9.5
2018-Jan-19 04:01N 32°02' W 080°54'0 0.0
2018-Jan-19 03:31N 32°02' W 080°54'0 0.0
2018-Jan-19 03:00N 32°02' W 080°54'4 7.9
2018-Jan-19 02:30N 32°02' W 080°50'5 9.0
2018-Jan-19 02:00N 31°59' W 080°45'0 0.3
2018-Jan-19 01:30N 31°59' W 080°46'4 7.1
2018-Jan-19 01:01N 31°57' W 080°42'714.1
2018-Jan-19 00:30N 32°01' W 080°49'0 0.4
2018-Jan-19 00:00N 32°01' W 080°48'5 9.8
2018-Jan-18 23:30N 32°02' W 080°54'0 0.0
2018-Jan-18 23:00N 32°02' W 080°54'0 0.0
2018-Jan-18 22:30N 32°02' W 080°54'4 3.0
2018-Jan-18 21:14N 32°02' W 080°50'1027.7
2018-Jan-18 20:52N 31°57' W 080°40'718.5
2018-Jan-18 20:31N 31°60' W 080°47'713.3
2018-Jan-18 20:00N 32°02' W 080°54'0 0.0
2018-Jan-18 19:30N 32°02' W 080°54'0 0.0
2018-Jan-18 19:00N 32°02' W 080°54'0 0.0
2018-Jan-18 18:31N 32°02' W 080°54'0 0.0
2018-Jan-18 18:00N 32°02' W 080°54'0 0.0
2018-Jan-18 17:30N 32°02' W 080°54'2 4.6
2018-Jan-18 17:01N 32°02' W 080°51'4 8.8
2018-Jan-18 16:31N 31°60' W 080°47'612.4
2018-Jan-18 16:00N 32°02' W 080°54'4 8.5
2018-Jan-18 15:30N 32°02' W 080°49'2 3.6
2018-Jan-18 15:00N 32°02' W 080°51'510.8
2018-Jan-18 14:30N 31°59' W 080°46'713.9
2018-Jan-18 14:00N 32°02' W 080°53'612.5
2018-Jan-18 13:31N 31°60' W 080°47'5 9.5
2018-Jan-18 13:00N 31°57' W 080°42'1223.4
2018-Jan-18 12:30N 32°02' W 080°54'4 7.4
2018-Jan-18 12:01N 32°02' W 080°50'814.0
2018-Jan-18 11:26N 31°57' W 080°42'1126.9
2018-Jan-18 11:00N 32°02' W 080°54'1426.3
2018-Jan-18 10:29N 31°57' W 080°39'816.2
2018-Jan-18 10:01N 32°00' W 080°47'612.0
2018-Jan-18 09:30N 32°02' W 080°54'0 0.0
2018-Jan-18 09:00N 32°02' W 080°54'816.8
2018-Jan-18 08:30N 31°59' W 080°45'612.4
2018-Jan-18 08:01N 32°02' W 080°51'0 0.7
2018-Jan-18 07:31N 32°02' W 080°52'510.1
2018-Jan-18 07:00N 31°59' W 080°47'713.6
2018-Jan-18 06:29N 32°02' W 080°54'0 0.0
2018-Jan-18 06:00N 32°02' W 080°54'0 0.0
2018-Jan-18 05:29N 32°02' W 080°54'0 0.0
2018-Jan-18 05:00N 32°02' W 080°54'0 0.1
2018-Jan-18 04:30N 32°02' W 080°54'0 0.0
2018-Jan-18 03:05N 32°02' W 080°54'0 0.0
2018-Jan-18 03:00N 32°02' W 080°54'0 0.0
2018-Jan-18 02:30N 32°02' W 080°54'0 0.0
2018-Jan-18 02:00N 32°02' W 080°54'0 0.0
2018-Jan-18 01:30N 32°02' W 080°54'0 0.0
2018-Jan-18 01:00N 32°02' W 080°54'0 0.0
2018-Jan-18 00:00N 32°02' W 080°54'0 0.0
2018-Jan-17 23:57N 32°02' W 080°54'  
2018-Jan-12 15:00N 32°02' W 080°54'0 0.0
2018-Jan-12 14:30N 32°02' W 080°54'0 0.0
2018-Jan-12 14:00N 32°02' W 080°54'0 0.0
2018-Jan-12 13:30N 32°02' W 080°54'0 0.0
2018-Jan-12 12:59N 32°02' W 080°54'0 0.0
2018-Jan-12 12:30N 32°02' W 080°54'0 0.0
2018-Jan-12 12:00N 32°02' W 080°54'0 0.0
2018-Jan-12 11:29N 32°02' W 080°54'0 0.0
2018-Jan-12 11:00N 32°02' W 080°54'0 0.0
2018-Jan-12 10:30N 32°02' W 080°54'0 0.0
2018-Jan-12 10:00N 32°02' W 080°54'0 0.0
2018-Jan-12 09:30N 32°02' W 080°54'0 0.0
2018-Jan-12 09:00N 32°02' W 080°54'0 0.0
2018-Jan-12 08:30N 32°02' W 080°54'0 0.0
2018-Jan-12 08:00N 32°02' W 080°54'0 0.0
2018-Jan-12 07:30N 32°02' W 080°54'0 0.0
2018-Jan-12 07:00N 32°02' W 080°54'0 0.0
2018-Jan-12 06:30N 32°02' W 080°54'0 0.0
2018-Jan-12 06:00N 32°02' W 080°54'0 0.0
2018-Jan-12 05:30N 32°02' W 080°54'0 0.0
2018-Jan-12 04:58N 32°02' W 080°54'2 5.2
2018-Jan-12 04:30N 32°02' W 080°51'2 4.7
2018-Jan-12 04:00N 32°02' W 080°54'0 0.0
2018-Jan-12 03:30N 32°02' W 080°54'0 0.0
2018-Jan-12 02:59N 32°02' W 080°54'0 0.0
2018-Jan-12 02:24N 32°02' W 080°54'0 0.0
2018-Jan-12 02:00N 32°02' W 080°54'612.4
2018-Jan-12 01:30N 31°60' W 080°47'612.1
2018-Jan-12 00:58N 32°02' W 080°54'0 0.0
2018-Jan-12 00:31N 32°02' W 080°54'0 0.0
2018-Jan-12 00:01N 32°02' W 080°54'0 0.0
2018-Jan-11 23:30N 32°02' W 080°54'0 0.0
2018-Jan-11 23:00N 32°02' W 080°54'0 0.0
2018-Jan-11 22:27N 32°02' W 080°54'0 0.0
2018-Jan-11 21:56N 32°02' W 080°54'0 0.0
2018-Jan-11 21:30N 32°02' W 080°54'0 0.0
2018-Jan-11 20:59N 32°02' W 080°54'0 0.0
2018-Jan-11 20:30N 32°02' W 080°54'0 0.0
2018-Jan-11 20:00N 32°02' W 080°54'1119.9
2018-Jan-11 19:27N 31°57' W 080°43'2 2.7
2018-Jan-11 18:34N 31°59' W 080°45'114.3
2018-Jan-11 18:29N 31°59' W 080°46'612.2
2018-Jan-11 18:01N 32°02' W 080°52'814.6
2018-Jan-11 17:27N 31°58' W 080°44'10 9.2
2018-Jan-11 16:24N 32°02' W 080°54'614.3
2018-Jan-11 16:00N 32°00' W 080°48'611.2
2018-Jan-11 15:30N 32°02' W 080°54'0 0.0
2018-Jan-11 15:01N 32°02' W 080°54'0 0.0
2018-Jan-11 14:29N 32°02' W 080°54'0 0.0
2018-Jan-11 13:54N 32°02' W 080°54'0 0.0
2018-Jan-11 13:30N 32°02' W 080°54'0 0.0
2018-Jan-11 12:57N 32°02' W 080°54'0 0.0
2018-Jan-11 12:30N 32°02' W 080°54'0 0.0
2018-Jan-11 12:00N 32°02' W 080°54'0 0.0
2018-Jan-11 11:28N 32°02' W 080°54'0 0.0
2018-Jan-11 10:57N 32°02' W 080°54'2 4.0
2018-Jan-11 10:30N 32°02' W 080°52'814.0
2018-Jan-11 09:57N 31°58' W 080°44'511.7
2018-Jan-11 09:30N 32°02' W 080°49'3 2.8
2018-Jan-11 08:17N 31°59' W 080°46'1 2.0
2018-Jan-11 07:59N 31°60' W 080°46'0 0.2
2018-Jan-11 06:00N 31°59' W 080°46'714.5
2018-Jan-11 05:30N 32°02' W 080°54'0 0.0
2018-Jan-11 05:00N 32°02' W 080°54'0 0.0
2018-Jan-11 04:27N 32°02' W 080°54'1022.2
2018-Jan-11 04:00N 31°58' W 080°43'3 6.9
2018-Jan-11 03:30N 31°60' W 080°47'4 7.2
2018-Jan-11 02:57N 31°58' W 080°43'614.1
2018-Jan-11 02:30N 32°02' W 080°49'5 9.1
2018-Jan-11 02:00N 32°02' W 080°54'0 0.0
2018-Jan-11 01:30N 32°02' W 080°54'0 0.0
2018-Jan-11 01:00N 32°02' W 080°54'0 0.0
2018-Jan-11 00:29N 32°02' W 080°54'2 4.4
2018-Jan-11 00:00N 32°02' W 080°52'6 9.1
2018-Jan-10 23:20N 31°59' W 080°46'823.1
2018-Jan-10 23:00N 32°02' W 080°54'7 7.6
2018-Jan-10 22:04N 31°59' W 080°46'112.3
2018-Jan-10 21:59N 31°60' W 080°47'510.9
2018-Jan-10 21:30N 32°02' W 080°53'1 2.3
2018-Jan-10 20:59N 32°02' W 080°54'0 0.0
2018-Jan-10 20:30N 32°02' W 080°54'0 0.0
2018-Jan-10 19:59N 32°02' W 080°54'0 0.0
2018-Jan-10 19:30N 32°02' W 080°54'1011.5
2018-Jan-10 18:38N 31°58' W 080°43'318.9
2018-Jan-10 18:30N 31°59' W 080°46'714.7
2018-Jan-10 18:00N 32°02' W 080°54'0 0.0
2018-Jan-10 17:30N 32°02' W 080°54'0 0.0
2018-Jan-10 17:00N 32°02' W 080°54'0 0.0
2018-Jan-10 16:30N 32°02' W 080°54'612.5
2018-Jan-10 16:00N 31°60' W 080°47'1 1.1
2018-Jan-10 14:49N 31°59' W 080°46'724.1
2018-Jan-10 14:30N 32°02' W 080°54'0 0.5
2018-Jan-10 14:00N 32°02' W 080°54'0 0.0
2018-Jan-10 13:30N 32°02' W 080°54'  
Track history (hours):
 
Tides and Currents Weather Stations Pressure Air Temp Water Temp Dewpoint Dewpoint Depression Visibility Wind Speed Wind Dir Waves Ship Positions

Georgia

Owner: savannah bar pilots, inc., savannah, GA. More information available from US FCC via Universal Licensing System and Coast Guard Vessel Documentation Center.

Last reported at 2018-Jan-20 13:01 UTC. Time now 2018-Jan-20 13:05 UTC.
Position N 31°58' W 080°43'.

Length 19 m; draft 1 m.

Type: Pilot. MMSI: 367586130.

Date/timePositionNaut miles runAvg speedWind from/ knotsBaromVisibWave heightAir tempDewpointWater temp
2018-Jan-20 13:01N 31°58' W 080°43'612.7
2018-Jan-20 12:31N 32°02' W 080°49'4 8.1
2018-Jan-20 12:00N 32°02' W 080°54'0 0.0
2018-Jan-20 11:31N 32°02' W 080°54'1325.0
2018-Jan-20 10:59N 31°56' W 080°40'511.3
2018-Jan-20 10:30N 31°59' W 080°45'816.0
2018-Jan-20 10:00N 32°02' W 080°54'816.4
2018-Jan-20 09:31N 31°59' W 080°45'0 0.2
2018-Jan-20 09:00N 31°59' W 080°45'2 4.2
2018-Jan-20 08:31N 32°00' W 080°47'814.3
2018-Jan-20 07:59N 31°56' W 080°40'1 1.5
2018-Jan-20 07:30N 31°57' W 080°40'3 6.6
2018-Jan-20 07:00N 31°58' W 080°43'3 6.9
2018-Jan-20 06:30N 31°60' W 080°47'713.0
2018-Jan-20 06:00N 32°02' W 080°54'0 0.0
2018-Jan-20 05:26N 32°02' W 080°54'0 0.0
2018-Jan-20 05:00N 32°02' W 080°54'0 0.0
2018-Jan-20 04:30N 32°02' W 080°54'0 0.0
2018-Jan-20 04:00N 32°02' W 080°54'0 0.0
2018-Jan-20 03:30N 32°02' W 080°54'0 0.0
2018-Jan-20 03:00N 32°02' W 080°54'816.1
2018-Jan-20 02:31N 31°59' W 080°45'611.6
2018-Jan-20 02:01N 32°02' W 080°51'3 5.0
2018-Jan-20 01:30N 32°02' W 080°54'0 0.0
2018-Jan-20 01:00N 32°02' W 080°54'1427.7
2018-Jan-20 00:30N 31°57' W 080°39'1427.6
2018-Jan-20 00:00N 32°02' W 080°54'0 0.0
2018-Jan-19 23:30N 32°02' W 080°54'0 0.0
2018-Jan-19 22:59N 32°02' W 080°54'0 0.0
2018-Jan-19 22:30N 32°02' W 080°54'0 0.0
2018-Jan-19 21:59N 32°02' W 080°54'0 0.0
2018-Jan-19 21:30N 32°02' W 080°54'0 0.0
2018-Jan-19 21:00N 32°02' W 080°54'0 0.0
2018-Jan-19 20:30N 32°02' W 080°54'0 0.0
2018-Jan-19 20:00N 32°02' W 080°54'0 0.0
2018-Jan-19 19:30N 32°02' W 080°54'0 0.0
2018-Jan-19 19:00N 32°02' W 080°54'1020.1
2018-Jan-19 18:30N 31°58' W 080°43'815.3
2018-Jan-19 18:00N 32°02' W 080°51'3 5.7
2018-Jan-19 17:30N 32°02' W 080°54'0 0.0
2018-Jan-19 17:00N 32°02' W 080°54'0 0.0
2018-Jan-19 16:29N 32°02' W 080°54'715.1
2018-Jan-19 16:00N 31°59' W 080°46'4 7.5
2018-Jan-19 15:30N 32°02' W 080°49'4 8.2
2018-Jan-19 15:00N 32°02' W 080°54'0 0.0
2018-Jan-19 14:30N 32°02' W 080°54'0 0.0
2018-Jan-19 13:59N 32°02' W 080°54'1 1.2
2018-Jan-19 13:30N 32°02' W 080°54'5 0.6
2018-Jan-19 05:59N 32°01' W 080°48'510.7
2018-Jan-19 05:30N 32°02' W 080°54'816.5
2018-Jan-19 05:00N 31°59' W 080°45'4 7.4
2018-Jan-19 04:30N 32°01' W 080°49'5 9.5
2018-Jan-19 04:01N 32°02' W 080°54'0 0.0
2018-Jan-19 03:31N 32°02' W 080°54'0 0.0
2018-Jan-19 03:00N 32°02' W 080°54'4 7.9
2018-Jan-19 02:30N 32°02' W 080°50'5 9.0
2018-Jan-19 02:00N 31°59' W 080°45'0 0.3
2018-Jan-19 01:30N 31°59' W 080°46'4 7.1
2018-Jan-19 01:01N 31°57' W 080°42'714.1
2018-Jan-19 00:30N 32°01' W 080°49'0 0.4
2018-Jan-19 00:00N 32°01' W 080°48'5 9.8
2018-Jan-18 23:30N 32°02' W 080°54'0 0.0
2018-Jan-18 23:00N 32°02' W 080°54'0 0.0
2018-Jan-18 22:30N 32°02' W 080°54'4 3.0
2018-Jan-18 21:14N 32°02' W 080°50'1027.7
2018-Jan-18 20:52N 31°57' W 080°40'718.5
2018-Jan-18 20:31N 31°60' W 080°47'713.3
2018-Jan-18 20:00N 32°02' W 080°54'0 0.0
2018-Jan-18 19:30N 32°02' W 080°54'0 0.0
2018-Jan-18 19:00N 32°02' W 080°54'0 0.0
2018-Jan-18 18:31N 32°02' W 080°54'0 0.0
2018-Jan-18 18:00N 32°02' W 080°54'0 0.0
2018-Jan-18 17:30N 32°02' W 080°54'2 4.6
2018-Jan-18 17:01N 32°02' W 080°51'4 8.8
2018-Jan-18 16:31N 31°60' W 080°47'612.4
2018-Jan-18 16:00N 32°02' W 080°54'4 8.5
2018-Jan-18 15:30N 32°02' W 080°49'2 3.6
2018-Jan-18 15:00N 32°02' W 080°51'510.8
2018-Jan-18 14:30N 31°59' W 080°46'713.9
2018-Jan-18 14:00N 32°02' W 080°53'612.5
2018-Jan-18 13:31N 31°60' W 080°47'5 9.5
2018-Jan-18 13:00N 31°57' W 080°42'1223.4
2018-Jan-18 12:30N 32°02' W 080°54'4 7.4
2018-Jan-18 12:01N 32°02' W 080°50'814.0
2018-Jan-18 11:26N 31°57' W 080°42'1126.9
2018-Jan-18 11:00N 32°02' W 080°54'1426.3
2018-Jan-18 10:29N 31°57' W 080°39'816.2
2018-Jan-18 10:01N 32°00' W 080°47'612.0
2018-Jan-18 09:30N 32°02' W 080°54'0 0.0
2018-Jan-18 09:00N 32°02' W 080°54'816.8
2018-Jan-18 08:30N 31°59' W 080°45'612.4
2018-Jan-18 08:01N 32°02' W 080°51'0 0.7
2018-Jan-18 07:31N 32°02' W 080°52'510.1
2018-Jan-18 07:00N 31°59' W 080°47'713.6
2018-Jan-18 06:29N 32°02' W 080°54'0 0.0
2018-Jan-18 06:00N 32°02' W 080°54'0 0.0
2018-Jan-18 05:29N 32°02' W 080°54'0 0.0
2018-Jan-18 05:00N 32°02' W 080°54'0 0.1
2018-Jan-18 04:30N 32°02' W 080°54'0 0.0
2018-Jan-18 03:05N 32°02' W 080°54'0 0.0
2018-Jan-18 03:00N 32°02' W 080°54'0 0.0
2018-Jan-18 02:30N 32°02' W 080°54'0 0.0
2018-Jan-18 02:00N 32°02' W 080°54'0 0.0
2018-Jan-18 01:30N 32°02' W 080°54'0 0.0
2018-Jan-18 01:00N 32°02' W 080°54'0 0.0
2018-Jan-18 00:00N 32°02' W 080°54'0 0.0
2018-Jan-17 23:57N 32°02' W 080°54'  
2018-Jan-12 15:00N 32°02' W 080°54'0 0.0
2018-Jan-12 14:30N 32°02' W 080°54'0 0.0
2018-Jan-12 14:00N 32°02' W 080°54'0 0.0
2018-Jan-12 13:30N 32°02' W 080°54'0 0.0
2018-Jan-12 12:59N 32°02' W 080°54'0 0.0
2018-Jan-12 12:30N 32°02' W 080°54'0 0.0
2018-Jan-12 12:00N 32°02' W 080°54'0 0.0
2018-Jan-12 11:29N 32°02' W 080°54'0 0.0
2018-Jan-12 11:00N 32°02' W 080°54'0 0.0
2018-Jan-12 10:30N 32°02' W 080°54'0 0.0
2018-Jan-12 10:00N 32°02' W 080°54'0 0.0
2018-Jan-12 09:30N 32°02' W 080°54'0 0.0
2018-Jan-12 09:00N 32°02' W 080°54'0 0.0
2018-Jan-12 08:30N 32°02' W 080°54'0 0.0
2018-Jan-12 08:00N 32°02' W 080°54'0 0.0
2018-Jan-12 07:30N 32°02' W 080°54'0 0.0
2018-Jan-12 07:00N 32°02' W 080°54'0 0.0
2018-Jan-12 06:30N 32°02' W 080°54'0 0.0
2018-Jan-12 06:00N 32°02' W 080°54'0 0.0
2018-Jan-12 05:30N 32°02' W 080°54'0 0.0
2018-Jan-12 04:58N 32°02' W 080°54'2 5.2
2018-Jan-12 04:30N 32°02' W 080°51'2 4.7
2018-Jan-12 04:00N 32°02' W 080°54'0 0.0
2018-Jan-12 03:30N 32°02' W 080°54'0 0.0
2018-Jan-12 02:59N 32°02' W 080°54'0 0.0
2018-Jan-12 02:24N 32°02' W 080°54'0 0.0
2018-Jan-12 02:00N 32°02' W 080°54'612.4
2018-Jan-12 01:30N 31°60' W 080°47'612.1
2018-Jan-12 00:58N 32°02' W 080°54'0 0.0
2018-Jan-12 00:31N 32°02' W 080°54'0 0.0
2018-Jan-12 00:01N 32°02' W 080°54'0 0.0
2018-Jan-11 23:30N 32°02' W 080°54'0 0.0
2018-Jan-11 23:00N 32°02' W 080°54'0 0.0
2018-Jan-11 22:27N 32°02' W 080°54'0 0.0
2018-Jan-11 21:56N 32°02' W 080°54'0 0.0
2018-Jan-11 21:30N 32°02' W 080°54'0 0.0
2018-Jan-11 20:59N 32°02' W 080°54'0 0.0
2018-Jan-11 20:30N 32°02' W 080°54'0 0.0
2018-Jan-11 20:00N 32°02' W 080°54'1119.9
2018-Jan-11 19:27N 31°57' W 080°43'2 2.7
2018-Jan-11 18:34N 31°59' W 080°45'114.3
2018-Jan-11 18:29N 31°59' W 080°46'612.2
2018-Jan-11 18:01N 32°02' W 080°52'814.6
2018-Jan-11 17:27N 31°58' W 080°44'10 9.2
2018-Jan-11 16:24N 32°02' W 080°54'614.3
2018-Jan-11 16:00N 32°00' W 080°48'611.2
2018-Jan-11 15:30N 32°02' W 080°54'0 0.0
2018-Jan-11 15:01N 32°02' W 080°54'0 0.0
2018-Jan-11 14:29N 32°02' W 080°54'0 0.0
2018-Jan-11 13:54N 32°02' W 080°54'0 0.0
2018-Jan-11 13:30N 32°02' W 080°54'0 0.0
2018-Jan-11 12:57N 32°02' W 080°54'0 0.0
2018-Jan-11 12:30N 32°02' W 080°54'0 0.0
2018-Jan-11 12:00N 32°02' W 080°54'0 0.0
2018-Jan-11 11:28N 32°02' W 080°54'0 0.0
2018-Jan-11 10:57N 32°02' W 080°54'2 4.0
2018-Jan-11 10:30N 32°02' W 080°52'814.0
2018-Jan-11 09:57N 31°58' W 080°44'511.7
2018-Jan-11 09:30N 32°02' W 080°49'3 2.8
2018-Jan-11 08:17N 31°59' W 080°46'1 2.0
2018-Jan-11 07:59N 31°60' W 080°46'0 0.2
2018-Jan-11 06:00N 31°59' W 080°46'714.5
2018-Jan-11 05:30N 32°02' W 080°54'0 0.0
2018-Jan-11 05:00N 32°02' W 080°54'0 0.0
2018-Jan-11 04:27N 32°02' W 080°54'1022.2
2018-Jan-11 04:00N 31°58' W 080°43'3 6.9
2018-Jan-11 03:30N 31°60' W 080°47'4 7.2
2018-Jan-11 02:57N 31°58' W 080°43'614.1
2018-Jan-11 02:30N 32°02' W 080°49'5 9.1
2018-Jan-11 02:00N 32°02' W 080°54'0 0.0
2018-Jan-11 01:30N 32°02' W 080°54'0 0.0
2018-Jan-11 01:00N 32°02' W 080°54'0 0.0
2018-Jan-11 00:29N 32°02' W 080°54'2 4.4
2018-Jan-11 00:00N 32°02' W 080°52'6 9.1
2018-Jan-10 23:20N 31°59' W 080°46'823.1
2018-Jan-10 23:00N 32°02' W 080°54'7 7.6
2018-Jan-10 22:04N 31°59' W 080°46'112.3
2018-Jan-10 21:59N 31°60' W 080°47'510.9
2018-Jan-10 21:30N 32°02' W 080°53'1 2.3
2018-Jan-10 20:59N 32°02' W 080°54'0 0.0
2018-Jan-10 20:30N 32°02' W 080°54'0 0.0
2018-Jan-10 19:59N 32°02' W 080°54'0 0.0
2018-Jan-10 19:30N 32°02' W 080°54'1011.5
2018-Jan-10 18:38N 31°58' W 080°43'318.9
2018-Jan-10 18:30N 31°59' W 080°46'714.7
2018-Jan-10 18:00N 32°02' W 080°54'0 0.0
2018-Jan-10 17:30N 32°02' W 080°54'0 0.0
2018-Jan-10 17:00N 32°02' W 080°54'0 0.0
2018-Jan-10 16:30N 32°02' W 080°54'612.5
2018-Jan-10 16:00N 31°60' W 080°47'1 1.1
2018-Jan-10 14:49N 31°59' W 080°46'724.1
2018-Jan-10 14:30N 32°02' W 080°54'0 0.5
2018-Jan-10 14:00N 32°02' W 080°54'0 0.0
2018-Jan-10 13:30N 32°02' W 080°54'  

Dump ship's entire track history